createdAt,value
2019-03-12T00:00:37.813Z,21.9
2019-03-12T00:01:27.621Z,21.9
2019-03-12T00:02:17.627Z,21.9
2019-03-12T00:03:07.180Z,21.9
2019-03-12T00:03:56.987Z,21.9
2019-03-12T00:04:47.587Z,21.9
2019-03-12T00:05:37.104Z,21.9
2019-03-12T00:06:27.756Z,21.9
2019-03-12T00:07:18.044Z,21.9
2019-03-12T00:08:07.267Z,21.9
2019-03-12T00:08:57.966Z,21.9
2019-03-12T00:09:47.699Z,21.9
2019-03-12T00:10:37.722Z,21.9
2019-03-12T00:11:28.319Z,21.9
2019-03-12T00:12:18.184Z,21.9
2019-03-12T00:13:08.167Z,21.9
2019-03-12T00:13:58.519Z,21.9
2019-03-12T00:14:48.542Z,21.9
2019-03-12T00:15:38.892Z,21.9
2019-03-12T00:16:28.159Z,21.9
2019-03-12T00:17:17.900Z,21.9
2019-03-12T00:18:08.354Z,21.9
2019-03-12T00:18:57.502Z,21.9
2019-03-12T00:19:47.813Z,21.9
2019-03-12T00:20:38.153Z,21.9
2019-03-12T00:21:29.331Z,21.9
2019-03-12T00:22:18.003Z,21.9
2019-03-12T00:23:08.678Z,21.9
2019-03-12T00:23:58.971Z,21.9
2019-03-12T00:24:48.751Z,21.9
2019-03-12T00:25:39.386Z,21.9
2019-03-12T00:26:29.153Z,21.9
2019-03-12T00:27:18.941Z,21.9
2019-03-12T00:28:09.248Z,21.9
2019-03-12T00:28:59.053Z,21.9
2019-03-12T00:29:49.754Z,21.9
2019-03-12T00:30:38.971Z,21.9
2019-03-12T00:31:29.316Z,21.9
2019-03-12T00:32:19.558Z,21.9
2019-03-12T00:33:10.261Z,21.8
2019-03-12T00:33:59.678Z,21.9
2019-03-12T00:34:50.000Z,21.9
2019-03-12T00:35:39.860Z,21.9
2019-03-12T00:36:29.850Z,21.9
2019-03-12T00:37:19.663Z,21.9
2019-03-12T00:38:09.410Z,21.9
2019-03-12T00:39:00.300Z,21.9
2019-03-12T00:39:50.378Z,21.9
2019-03-12T00:40:40.265Z,21.9
2019-03-12T00:41:30.776Z,21.9
2019-03-12T00:42:20.008Z,21.9
2019-03-12T00:43:10.325Z,21.9
2019-03-12T00:44:00.170Z,21.9
2019-03-12T00:44:50.576Z,21.9
2019-03-12T00:45:40.846Z,21.9
2019-03-12T00:46:33.610Z,21.8
2019-03-12T00:47:20.375Z,21.9
2019-03-12T00:48:10.421Z,21.9
2019-03-12T00:49:01.059Z,21.9
2019-03-12T00:49:50.812Z,21.8
2019-03-12T00:50:41.155Z,21.9
2019-03-12T00:51:30.683Z,21.9
2019-03-12T00:52:20.995Z,21.9
2019-03-12T00:53:11.087Z,21.9
2019-03-12T00:54:00.865Z,21.9
2019-03-12T00:54:50.627Z,21.9
2019-03-12T00:55:41.267Z,21.9
2019-03-12T00:56:30.767Z,21.9
2019-03-12T00:57:21.085Z,21.9
2019-03-12T00:58:11.739Z,21.9
2019-03-12T00:59:00.924Z,21.9
2019-03-12T00:59:51.304Z,21.9
2019-03-12T01:00:41.069Z,21.9
2019-03-12T01:01:31.691Z,21.9
2019-03-12T01:02:22.005Z,21.9
2019-03-12T01:03:11.879Z,21.9
2019-03-12T01:04:02.414Z,21.9
2019-03-12T01:04:51.669Z,21.9
2019-03-12T01:05:41.711Z,21.9
2019-03-12T01:06:32.328Z,21.9
2019-03-12T01:07:22.437Z,21.9
2019-03-12T01:08:11.874Z,21.9
2019-03-12T01:09:02.847Z,21.9
2019-03-12T01:09:51.714Z,21.9
2019-03-12T01:10:42.961Z,21.9
2019-03-12T01:11:32.393Z,21.9
2019-03-12T01:12:22.818Z,21.9
2019-03-12T01:13:12.049Z,21.9
2019-03-12T01:14:02.888Z,21.9
2019-03-12T01:14:52.356Z,21.9
2019-03-12T01:15:43.029Z,21.9
2019-03-12T01:16:31.932Z,21.9
2019-03-12T01:17:23.083Z,21.9
2019-03-12T01:18:16.162Z,21.9
2019-03-12T01:19:03.313Z,21.9
2019-03-12T01:19:53.563Z,21.9
2019-03-12T01:20:42.863Z,21.9
2019-03-12T01:21:33.150Z,21.9
2019-03-12T01:22:23.275Z,21.9
2019-03-12T01:23:12.956Z,21.9
2019-03-12T01:24:03.473Z,21.9
2019-03-12T01:24:53.669Z,21.9
2019-03-12T01:25:42.786Z,21.9
2019-03-12T01:26:32.945Z,21.9
2019-03-12T01:27:23.850Z,21.9
2019-03-12T01:28:14.170Z,21.9
2019-03-12T01:29:03.653Z,21.9
2019-03-12T01:29:54.033Z,21.9
2019-03-12T01:30:43.825Z,21.9
2019-03-12T01:31:34.118Z,21.9
2019-03-12T01:32:24.230Z,21.9
2019-03-12T01:33:13.955Z,21.9
2019-03-12T01:34:04.083Z,21.9
2019-03-12T01:34:53.254Z,21.9
2019-03-12T01:35:44.177Z,21.9
2019-03-12T01:36:34.477Z,21.9
2019-03-12T01:37:24.282Z,21.9
2019-03-12T01:38:14.620Z,21.9
2019-03-12T01:39:03.565Z,21.9
2019-03-12T01:39:54.712Z,21.9
2019-03-12T01:40:44.500Z,21.9
2019-03-12T01:41:33.467Z,21.9
2019-03-12T01:42:24.789Z,21.9
2019-03-12T01:43:14.453Z,21.9
2019-03-12T01:44:05.042Z,21.9
2019-03-12T01:44:54.550Z,21.9
2019-03-12T01:45:45.157Z,21.9
2019-03-12T01:46:34.992Z,21.9
2019-03-12T01:47:25.393Z,21.9
2019-03-12T01:48:15.071Z,21.9
2019-03-12T01:49:04.297Z,21.9
2019-03-12T01:49:55.449Z,21.9
2019-03-12T01:50:45.816Z,21.9
2019-03-12T01:51:37.191Z,21.9
2019-03-12T01:52:25.384Z,21.9
2019-03-12T01:53:15.442Z,21.9
2019-03-12T01:54:05.514Z,21.9
2019-03-12T01:54:55.325Z,21.9
2019-03-12T01:55:45.914Z,21.9
2019-03-12T01:56:35.709Z,21.9
2019-03-12T01:57:26.086Z,21.9
2019-03-12T01:58:19.548Z,21.9
2019-03-12T01:59:05.306Z,21.9
2019-03-12T01:59:55.954Z,21.9
2019-03-12T02:00:45.726Z,21.9
2019-03-12T02:01:36.045Z,21.9
2019-03-12T02:02:25.801Z,21.9
2019-03-12T02:03:16.568Z,21.9
2019-03-12T02:04:06.023Z,21.9
2019-03-12T02:04:55.445Z,21.9
2019-03-12T02:05:46.333Z,21.9
2019-03-12T02:06:36.418Z,21.9
2019-03-12T02:07:27.029Z,21.9
2019-03-12T02:08:16.247Z,21.9
2019-03-12T02:09:07.190Z,21.9
2019-03-12T02:09:56.929Z,21.9
2019-03-12T02:10:46.780Z,21.9
2019-03-12T02:11:37.062Z,21.9
2019-03-12T02:12:26.257Z,21.9
2019-03-12T02:13:17.140Z,21.8
2019-03-12T02:14:07.218Z,21.9
2019-03-12T02:14:57.035Z,21.9
2019-03-12T02:15:47.070Z,21.9
2019-03-12T02:16:40.143Z,21.9
2019-03-12T02:17:26.677Z,21.9
2019-03-12T02:18:17.230Z,21.8
2019-03-12T02:19:07.623Z,21.9
2019-03-12T02:19:56.906Z,21.9
2019-03-12T02:20:47.972Z,21.9
2019-03-12T02:21:37.467Z,21.8
2019-03-12T02:22:27.277Z,21.8
2019-03-12T02:23:17.052Z,21.9
2019-03-12T02:24:07.434Z,21.9
2019-03-12T02:24:59.330Z,21.8
2019-03-12T02:25:48.050Z,21.9
2019-03-12T02:26:37.584Z,21.9
2019-03-12T02:27:27.907Z,21.8
2019-03-12T02:28:17.960Z,21.8
2019-03-12T02:29:08.599Z,21.9
2019-03-12T02:29:57.909Z,21.8
2019-03-12T02:30:48.357Z,21.8
2019-03-12T02:31:38.280Z,21.8
2019-03-12T02:32:27.755Z,21.8
2019-03-12T02:33:17.241Z,21.8
2019-03-12T02:34:09.055Z,21.8
2019-03-12T02:34:58.564Z,21.8
2019-03-12T02:35:48.814Z,21.8
2019-03-12T02:36:37.845Z,21.8
2019-03-12T02:37:29.096Z,21.8
2019-03-12T02:38:19.084Z,21.8
2019-03-12T02:39:08.806Z,21.8
2019-03-12T02:39:58.900Z,21.8
2019-03-12T02:40:48.415Z,21.8
2019-03-12T02:41:39.056Z,21.8
2019-03-12T02:42:28.793Z,21.8
2019-03-12T02:43:19.489Z,21.9
2019-03-12T02:44:08.984Z,21.8
2019-03-12T02:44:59.806Z,21.8
2019-03-12T02:45:49.392Z,21.8
2019-03-12T02:46:39.906Z,21.8
2019-03-12T02:47:29.554Z,21.8
2019-03-12T02:48:19.513Z,21.9
2019-03-12T02:49:15.400Z,21.8
2019-03-12T02:49:59.315Z,21.8
2019-03-12T02:50:48.833Z,21.8
2019-03-12T02:51:39.728Z,21.9
2019-03-12T02:52:30.183Z,21.8
2019-03-12T02:53:19.617Z,21.8
2019-03-12T02:54:09.508Z,21.8
2019-03-12T02:54:59.690Z,21.9
2019-03-12T02:55:50.083Z,21.9
2019-03-12T02:56:39.259Z,21.8
2019-03-12T02:57:30.453Z,21.9
2019-03-12T02:58:20.222Z,21.9
2019-03-12T02:59:10.616Z,21.9
2019-03-12T02:59:59.884Z,21.8
2019-03-12T03:00:50.132Z,21.8
2019-03-12T03:01:40.621Z,21.8
2019-03-12T03:02:30.450Z,21.8
2019-03-12T03:03:20.869Z,21.9
2019-03-12T03:04:11.192Z,21.9
2019-03-12T03:07:40.507Z,21.8
2019-03-12T03:08:32.009Z,21.9
2019-03-12T03:09:21.540Z,21.9
2019-03-12T03:10:11.452Z,21.9
2019-03-12T03:11:01.345Z,21.9
2019-03-12T03:11:55.152Z,21.8
2019-03-12T03:12:41.666Z,21.8
2019-03-12T03:13:31.590Z,21.9
2019-03-12T03:14:22.019Z,21.8
2019-03-12T03:15:11.826Z,21.8
2019-03-12T03:16:02.613Z,21.9
2019-03-12T03:16:51.709Z,21.8
2019-03-12T03:17:42.338Z,21.9
2019-03-12T03:18:32.238Z,21.9
2019-03-12T03:19:21.846Z,21.8
2019-03-12T03:20:11.992Z,21.9
2019-03-12T03:21:02.128Z,21.9
2019-03-12T03:21:51.243Z,21.9
2019-03-12T03:22:42.710Z,21.9
2019-03-12T03:23:32.596Z,21.9
2019-03-12T03:24:22.549Z,21.8
2019-03-12T03:25:12.612Z,21.9
2019-03-12T03:26:02.259Z,21.9
2019-03-12T03:26:52.357Z,21.9
2019-03-12T03:27:42.503Z,21.9
2019-03-12T03:28:32.961Z,21.9
2019-03-12T03:29:22.878Z,21.8
2019-03-12T03:30:13.068Z,21.8
2019-03-12T03:31:03.752Z,21.8
2019-03-12T03:31:52.697Z,21.8
2019-03-12T03:32:43.402Z,21.8
2019-03-12T03:33:33.889Z,21.9
2019-03-12T03:34:33.151Z,21.8
2019-03-12T03:35:13.264Z,21.8
2019-03-12T03:36:03.842Z,21.8
2019-03-12T03:36:53.689Z,21.8
2019-03-12T03:37:43.453Z,21.8
2019-03-12T03:38:33.526Z,21.8
2019-03-12T03:39:23.589Z,21.8
2019-03-12T03:40:13.969Z,21.8
2019-03-12T03:41:03.637Z,21.8
2019-03-12T03:41:53.580Z,21.9
2019-03-12T03:42:43.701Z,21.8
2019-03-12T03:43:34.542Z,21.8
2019-03-12T03:44:24.068Z,21.8
2019-03-12T03:45:14.649Z,21.8
2019-03-12T03:46:04.724Z,21.8
2019-03-12T03:46:54.151Z,21.9
2019-03-12T03:47:44.294Z,21.8
2019-03-12T03:48:34.502Z,21.8
2019-03-12T03:49:24.965Z,21.8
2019-03-12T03:50:14.754Z,21.8
2019-03-12T03:51:04.553Z,21.8
2019-03-12T03:51:54.793Z,21.8
2019-03-12T03:52:45.005Z,21.8
2019-03-12T03:53:34.468Z,21.8
2019-03-12T03:54:24.890Z,21.8
2019-03-12T03:55:14.066Z,21.8
2019-03-12T03:56:05.653Z,21.8
2019-03-12T03:56:55.190Z,21.8
2019-03-12T03:57:45.057Z,21.8
2019-03-12T03:58:34.463Z,21.8
2019-03-12T03:59:25.444Z,21.8
2019-03-12T04:00:15.080Z,21.8
2019-03-12T04:01:04.911Z,21.8
2019-03-12T04:01:55.252Z,21.8
2019-03-12T04:02:45.933Z,21.8
2019-03-12T04:03:35.802Z,21.8
2019-03-12T04:04:26.130Z,21.8
2019-03-12T04:05:15.796Z,21.8
2019-03-12T04:06:05.500Z,21.8
2019-03-12T04:06:55.667Z,21.8
2019-03-12T04:07:45.377Z,21.8
2019-03-12T04:08:35.497Z,21.8
2019-03-12T04:09:25.528Z,21.8
2019-03-12T04:10:16.047Z,21.8
2019-03-12T04:11:06.219Z,21.8
2019-03-12T04:11:55.950Z,21.8
2019-03-12T04:12:45.944Z,21.8
2019-03-12T04:13:36.510Z,21.8
2019-03-12T04:14:25.871Z,21.8
2019-03-12T04:15:16.049Z,21.8
2019-03-12T04:16:07.125Z,21.8
2019-03-12T04:16:56.640Z,21.8
2019-03-12T04:17:46.837Z,21.8
2019-03-12T04:18:36.823Z,21.8
2019-03-12T04:19:26.678Z,21.8
2019-03-12T04:20:15.947Z,21.8
2019-03-12T04:21:06.737Z,21.8
2019-03-12T04:21:56.972Z,21.8
2019-03-12T04:22:46.891Z,21.8
2019-03-12T04:23:36.665Z,21.8
2019-03-12T04:24:26.874Z,21.8
2019-03-12T04:25:31.236Z,21.8
2019-03-12T04:26:07.348Z,21.8
2019-03-12T04:26:57.074Z,21.8
2019-03-12T04:27:47.882Z,21.8
2019-03-12T04:28:37.516Z,21.8
2019-03-12T04:29:27.791Z,21.8
2019-03-12T04:30:16.875Z,21.8
2019-03-12T04:31:07.908Z,21.8
2019-03-12T04:31:58.012Z,21.8
2019-03-12T04:32:47.390Z,21.8
2019-03-12T04:33:37.592Z,21.8
2019-03-12T04:34:27.691Z,21.8
2019-03-12T04:35:17.777Z,21.8
2019-03-12T04:36:07.423Z,21.8
2019-03-12T04:36:58.205Z,21.8
2019-03-12T04:37:48.389Z,21.8
2019-03-12T04:38:37.873Z,21.8
2019-03-12T04:39:27.602Z,21.8
2019-03-12T04:40:17.819Z,21.8
2019-03-12T04:41:08.059Z,21.8
2019-03-12T04:41:57.787Z,21.8
2019-03-12T04:42:47.987Z,21.8
2019-03-12T04:43:38.519Z,21.8
2019-03-12T04:44:28.361Z,21.8
2019-03-12T04:45:18.707Z,21.8
2019-03-12T04:46:08.697Z,21.8
2019-03-12T04:46:58.299Z,21.8
2019-03-12T04:47:48.349Z,21.8
2019-03-12T04:48:38.799Z,21.8
2019-03-12T04:49:28.643Z,21.8
2019-03-12T04:50:18.764Z,21.8
2019-03-12T04:51:08.706Z,21.8
2019-03-12T04:51:59.216Z,21.8
2019-03-12T04:52:48.896Z,21.8
2019-03-12T04:53:42.724Z,21.8
2019-03-12T04:54:28.966Z,21.8
2019-03-12T04:55:18.629Z,21.8
2019-03-12T04:56:09.376Z,21.8
2019-03-12T04:56:59.431Z,21.8
2019-03-12T04:57:49.338Z,21.8
2019-03-12T04:58:39.536Z,21.8
2019-03-12T04:59:29.387Z,21.8
2019-03-12T05:00:19.420Z,21.8
2019-03-12T05:01:09.175Z,21.8
2019-03-12T05:01:59.627Z,21.8
2019-03-12T05:02:49.570Z,21.8
2019-03-12T05:03:39.340Z,21.8
2019-03-12T05:04:29.715Z,21.8
2019-03-12T05:05:19.800Z,21.8
2019-03-12T05:06:09.814Z,21.8
2019-03-12T05:06:59.588Z,21.8
2019-03-12T05:07:49.970Z,21.8
2019-03-12T05:08:39.990Z,21.8
2019-03-12T05:09:29.899Z,21.8
2019-03-12T05:10:20.788Z,21.8
2019-03-12T05:11:10.273Z,21.8
2019-03-12T05:12:00.271Z,21.8
2019-03-12T05:12:50.596Z,21.8
2019-03-12T05:13:39.873Z,21.8
2019-03-12T05:14:30.422Z,21.8
2019-03-12T05:15:20.595Z,21.8
2019-03-12T05:16:10.260Z,21.8
2019-03-12T05:16:59.857Z,21.8
2019-03-12T05:17:50.245Z,21.8
2019-03-12T05:18:40.710Z,21.9
2019-03-12T05:19:30.505Z,21.8
2019-03-12T05:20:21.137Z,21.8
2019-03-12T05:21:10.655Z,21.9
2019-03-12T05:22:00.967Z,21.9
2019-03-12T05:22:51.196Z,21.8
2019-03-12T05:23:41.080Z,21.8
2019-03-12T05:24:31.139Z,21.8
2019-03-12T05:25:21.216Z,21.9
2019-03-12T05:26:10.742Z,21.8
2019-03-12T05:27:01.878Z,21.9
2019-03-12T05:27:50.393Z,21.8
2019-03-12T05:28:41.725Z,21.8
2019-03-12T05:29:31.217Z,21.8
2019-03-12T05:30:22.172Z,21.8
2019-03-12T05:31:12.202Z,21.8
2019-03-12T05:32:02.030Z,21.8
2019-03-12T05:32:52.209Z,21.8
2019-03-12T05:33:41.800Z,21.8
2019-03-12T05:34:31.640Z,21.8
2019-03-12T05:35:21.977Z,21.8
2019-03-12T05:36:12.289Z,21.8
2019-03-12T05:37:01.819Z,21.8
2019-03-12T05:37:52.431Z,21.8
2019-03-12T05:38:42.534Z,21.8
2019-03-12T05:39:32.557Z,21.8
2019-03-12T05:40:21.471Z,21.8
2019-03-12T05:41:15.634Z,21.8
2019-03-12T05:42:02.720Z,21.8
2019-03-12T05:42:52.183Z,21.8
2019-03-12T05:43:42.223Z,21.8
2019-03-12T05:44:32.601Z,21.8
2019-03-12T05:45:22.752Z,21.8
2019-03-12T05:46:13.243Z,21.8
2019-03-12T05:47:03.046Z,21.8
2019-03-12T05:47:53.085Z,21.9
2019-03-12T05:48:43.208Z,21.9
2019-03-12T05:49:32.678Z,21.8
2019-03-12T05:50:22.656Z,21.9
2019-03-12T05:51:13.050Z,21.9
2019-03-12T05:52:02.420Z,21.9
2019-03-12T05:52:54.961Z,21.9
2019-03-12T05:53:43.800Z,21.9
2019-03-12T05:54:33.070Z,21.9
2019-03-12T05:55:23.764Z,21.9
2019-03-12T05:56:13.395Z,21.9
2019-03-12T05:57:03.515Z,21.9
2019-03-12T05:57:53.974Z,21.9
2019-03-12T05:58:43.318Z,21.9
2019-03-12T05:59:33.457Z,21.9
2019-03-12T06:00:24.032Z,21.9
2019-03-12T06:01:13.778Z,21.9
2019-03-12T06:02:03.597Z,21.9
2019-03-12T06:02:53.646Z,21.9
2019-03-12T06:05:40.685Z,21.9
2019-03-12T06:06:30.930Z,21.9
2019-03-12T06:07:21.319Z,21.9
2019-03-12T06:08:11.645Z,21.9
2019-03-12T06:09:01.465Z,21.9
2019-03-12T06:09:51.412Z,21.9
2019-03-12T06:10:41.474Z,21.9
2019-03-12T06:11:31.243Z,21.9
2019-03-12T06:12:21.862Z,21.9
2019-03-12T06:13:11.992Z,21.9
2019-03-12T06:14:01.722Z,21.9
2019-03-12T06:14:52.042Z,21.9
2019-03-12T06:15:41.634Z,21.9
2019-03-12T06:16:31.612Z,21.9
2019-03-12T06:17:22.594Z,21.9
2019-03-12T06:18:12.087Z,21.9
2019-03-12T06:19:02.155Z,21.9
2019-03-12T06:19:51.844Z,21.9
2019-03-12T06:20:41.917Z,21.9
2019-03-12T06:21:31.977Z,21.9
2019-03-12T06:22:22.627Z,21.9
2019-03-12T06:23:11.288Z,21.9
2019-03-12T06:24:03.017Z,21.9
2019-03-12T06:24:52.764Z,21.9
2019-03-12T06:25:42.330Z,21.9
2019-03-12T06:26:32.034Z,21.9
2019-03-12T06:27:23.751Z,21.9
2019-03-12T06:28:12.708Z,21.9
2019-03-12T06:29:02.226Z,21.9
2019-03-12T06:29:52.588Z,21.9
2019-03-12T06:30:42.898Z,21.9
2019-03-12T06:31:32.946Z,21.9
2019-03-12T06:32:23.023Z,22
2019-03-12T06:33:13.370Z,21.9
2019-03-12T06:34:03.158Z,22
2019-03-12T06:34:53.758Z,22
2019-03-12T06:35:42.725Z,21.9
2019-03-12T06:36:33.599Z,21.9
2019-03-12T06:37:23.106Z,21.9
2019-03-12T06:38:13.480Z,21.9
2019-03-12T06:39:03.506Z,21.9
2019-03-12T06:39:53.873Z,21.9
2019-03-12T06:40:43.633Z,21.9
2019-03-12T06:41:33.405Z,21.9
2019-03-12T06:42:24.123Z,21.9
2019-03-12T06:43:14.090Z,21.9
2019-03-12T06:44:04.228Z,21.9
2019-03-12T06:44:53.968Z,21.9
2019-03-12T06:45:44.555Z,21.9
2019-03-12T06:46:33.568Z,22
2019-03-12T06:47:23.070Z,21.9
2019-03-12T06:48:13.635Z,21.9
2019-03-12T06:49:04.020Z,21.9
2019-03-12T06:49:54.092Z,21.9
2019-03-12T06:50:44.435Z,21.9
2019-03-12T06:51:32.847Z,21.9
2019-03-12T06:52:24.281Z,21.9
2019-03-12T06:53:14.049Z,21.9
2019-03-12T06:54:04.874Z,21.9
2019-03-12T06:54:54.936Z,21.9
2019-03-12T06:55:46.965Z,21.9
2019-03-12T06:56:34.424Z,21.9
2019-03-12T06:57:23.789Z,21.9
2019-03-12T06:58:14.937Z,21.9
2019-03-12T06:59:04.287Z,21.9
2019-03-12T06:59:54.779Z,21.9
2019-03-12T07:00:44.594Z,21.9
2019-03-12T07:01:34.716Z,21.9
2019-03-12T07:02:25.825Z,22
2019-03-12T07:03:15.566Z,21.9
2019-03-12T07:05:40.831Z,22
2019-03-12T07:06:30.867Z,22
2019-03-12T07:07:23.909Z,22
2019-03-12T07:08:12.759Z,21.9
2019-03-12T07:09:01.921Z,21.9
2019-03-12T07:09:51.827Z,22
2019-03-12T07:10:41.401Z,22
2019-03-12T07:11:31.203Z,21.9
2019-03-12T07:12:21.813Z,22
2019-03-12T07:13:11.941Z,21.9
2019-03-12T07:14:02.211Z,21.9
2019-03-12T07:14:51.719Z,22
2019-03-12T07:15:41.890Z,22
2019-03-12T07:16:31.823Z,21.9
2019-03-12T07:17:21.917Z,22
2019-03-12T07:18:11.693Z,22
2019-03-12T07:19:01.996Z,22
2019-03-12T07:19:52.518Z,22
2019-03-12T07:20:42.413Z,22
2019-03-12T07:21:32.478Z,22
2019-03-12T07:22:22.242Z,22
2019-03-12T07:23:12.641Z,22
2019-03-12T07:24:02.636Z,22
2019-03-12T07:25:42.740Z,22
2019-03-12T07:26:32.798Z,22
2019-03-12T07:27:22.843Z,22
2019-03-12T07:28:12.125Z,22
2019-03-12T07:29:03.068Z,22
2019-03-12T07:29:53.205Z,22
2019-03-12T07:30:42.885Z,22
2019-03-12T07:31:34.166Z,22
2019-03-12T07:32:23.216Z,22
2019-03-12T07:33:13.140Z,22
2019-03-12T07:34:03.093Z,22
2019-03-12T07:34:53.397Z,22
2019-03-12T07:35:43.205Z,22
2019-03-12T07:36:33.257Z,22
2019-03-12T07:37:23.312Z,22
2019-03-12T07:38:13.653Z,22
2019-03-12T07:39:03.667Z,22
2019-03-12T07:39:52.752Z,22
2019-03-12T07:40:43.038Z,22
2019-03-12T07:41:39.354Z,22
2019-03-12T07:42:22.844Z,22
2019-03-12T07:43:13.269Z,22
2019-03-12T07:44:03.827Z,22
2019-03-12T07:44:54.139Z,22
2019-03-12T07:45:47.359Z,22
2019-03-12T07:46:34.382Z,22
2019-03-12T07:47:38.254Z,22
2019-03-12T07:48:28.809Z,22
2019-03-12T07:49:04.226Z,22
2019-03-12T07:49:54.261Z,22
2019-03-12T07:50:44.345Z,22
2019-03-12T07:51:33.581Z,22
2019-03-12T07:52:24.354Z,22
2019-03-12T07:53:13.924Z,22
2019-03-12T07:54:06.643Z,22
2019-03-12T07:54:54.104Z,22
2019-03-12T07:55:44.736Z,22
2019-03-12T07:56:35.009Z,22
2019-03-12T07:57:24.796Z,22
2019-03-12T07:58:15.189Z,22
2019-03-12T07:59:05.144Z,22
2019-03-12T07:59:54.743Z,22.1
2019-03-12T08:00:45.262Z,22.1
2019-03-12T08:01:35.631Z,22.1
2019-03-12T08:02:23.998Z,22.1
2019-03-12T08:03:15.695Z,22.1
2019-03-12T08:04:05.857Z,22
2019-03-12T08:04:55.300Z,22.1
2019-03-12T08:05:45.643Z,22
2019-03-12T08:06:35.667Z,22
2019-03-12T08:07:25.216Z,22
2019-03-12T08:08:14.971Z,22.1
2019-03-12T08:09:06.188Z,22.1
2019-03-12T08:09:55.378Z,22.1
2019-03-12T08:10:46.303Z,22
2019-03-12T08:11:35.986Z,22
2019-03-12T08:12:26.422Z,22.1
2019-03-12T08:13:16.495Z,22
2019-03-12T08:14:05.393Z,22.1
2019-03-12T08:14:56.318Z,22.1
2019-03-12T08:15:45.910Z,22.1
2019-03-12T08:16:35.852Z,22.1
2019-03-12T08:17:26.200Z,22.1
2019-03-12T08:18:15.453Z,22.1
2019-03-12T08:19:06.333Z,22.1
2019-03-12T08:19:56.417Z,22.1
2019-03-12T08:20:46.513Z,22.1
2019-03-12T08:21:36.520Z,22.1
2019-03-12T08:22:26.557Z,22.1
2019-03-12T08:23:16.920Z,22.1
2019-03-12T08:24:06.985Z,22
2019-03-12T08:24:57.110Z,22.1
2019-03-12T08:25:50.522Z,22.1
2019-03-12T08:26:37.059Z,22
2019-03-12T08:27:29.770Z,22
2019-03-12T08:28:16.957Z,22
2019-03-12T08:29:07.051Z,22.1
2019-03-12T08:29:57.425Z,22.1
2019-03-12T08:30:46.986Z,22.1
2019-03-12T08:31:37.225Z,22.1
2019-03-12T08:32:30.127Z,22
2019-03-12T08:33:16.289Z,22
2019-03-12T08:34:07.670Z,22.1
2019-03-12T08:34:57.831Z,22
2019-03-12T08:35:47.615Z,22.1
2019-03-12T08:36:37.848Z,22.1
2019-03-12T08:37:28.015Z,22
2019-03-12T08:38:17.518Z,22
2019-03-12T08:39:08.304Z,22
2019-03-12T08:39:58.431Z,22
2019-03-12T08:41:03.089Z,22
2019-03-12T08:41:37.666Z,22.1
2019-03-12T08:42:28.021Z,22
2019-03-12T08:43:18.237Z,22
2019-03-12T08:44:08.474Z,22
2019-03-12T08:45:02.017Z,22
2019-03-12T08:45:55.207Z,22
2019-03-12T08:46:38.989Z,22
2019-03-12T08:47:27.904Z,22
2019-03-12T08:48:19.702Z,22
2019-03-12T08:49:08.959Z,22
2019-03-12T08:49:58.297Z,22
2019-03-12T08:50:48.699Z,22
2019-03-12T08:51:39.381Z,22
2019-03-12T08:52:28.896Z,22.1
2019-03-12T08:53:18.865Z,22
2019-03-12T08:54:09.191Z,22
2019-03-12T08:55:05.537Z,22
2019-03-12T08:55:49.619Z,22
2019-03-12T08:56:39.607Z,22
2019-03-12T08:57:29.708Z,22
2019-03-12T08:58:19.504Z,22.1
2019-03-12T08:59:09.000Z,22
2019-03-12T08:59:59.576Z,22
2019-03-12T09:00:49.124Z,22
2019-03-12T09:01:39.721Z,22
2019-03-12T09:02:29.476Z,22
2019-03-12T09:03:18.963Z,22
2019-03-12T09:04:10.170Z,22
2019-03-12T09:04:59.897Z,22
2019-03-12T09:05:49.664Z,22
2019-03-12T09:06:39.722Z,22
2019-03-12T09:07:28.694Z,22
2019-03-12T09:08:19.590Z,22
2019-03-12T09:09:09.919Z,22
2019-03-12T09:09:59.965Z,22
2019-03-12T09:10:50.311Z,22.1
2019-03-12T09:11:39.905Z,22
2019-03-12T09:12:30.436Z,22
2019-03-12T09:13:20.569Z,22
2019-03-12T09:14:09.504Z,22
2019-03-12T09:15:00.828Z,22
2019-03-12T09:15:50.506Z,22
2019-03-12T09:16:40.154Z,22
2019-03-12T09:17:30.526Z,22
2019-03-12T09:18:20.026Z,22
2019-03-12T09:19:10.614Z,22
2019-03-12T09:20:01.356Z,22
2019-03-12T09:20:50.476Z,22
2019-03-12T09:21:41.075Z,22
2019-03-12T09:22:31.426Z,22
2019-03-12T09:23:21.759Z,22
2019-03-12T09:24:11.261Z,22
2019-03-12T09:25:01.336Z,22
2019-03-12T09:25:51.404Z,22
2019-03-12T09:26:40.058Z,22
2019-03-12T09:27:31.451Z,22
2019-03-12T09:28:21.391Z,22
2019-03-12T09:29:11.843Z,22
2019-03-12T09:30:01.838Z,22
2019-03-12T09:30:50.653Z,22
2019-03-12T09:31:41.610Z,22
2019-03-12T09:32:31.578Z,22
2019-03-12T09:33:21.942Z,22
2019-03-12T09:34:12.241Z,22
2019-03-12T09:35:01.945Z,22
2019-03-12T09:35:51.258Z,22
2019-03-12T09:36:41.008Z,22
2019-03-12T09:37:31.703Z,22
2019-03-12T09:38:22.368Z,21.9
2019-03-12T09:39:12.063Z,22
2019-03-12T09:40:02.533Z,22
2019-03-12T09:40:51.903Z,21.9
2019-03-12T09:41:41.776Z,22
2019-03-12T09:42:32.350Z,21.9
2019-03-12T09:43:22.072Z,21.9
2019-03-12T09:44:12.718Z,21.9
2019-03-12T09:45:02.771Z,22
2019-03-12T09:45:52.840Z,22
2019-03-12T09:46:43.202Z,22
2019-03-12T09:47:32.347Z,21.9
2019-03-12T09:48:22.668Z,22
2019-03-12T09:49:12.510Z,22
2019-03-12T09:50:02.756Z,21.9
2019-03-12T09:50:52.927Z,21.9
2019-03-12T09:51:42.982Z,21.9
2019-03-12T09:52:33.307Z,21.9
2019-03-12T09:53:23.400Z,21.9
2019-03-12T09:54:12.920Z,21.9
2019-03-12T09:55:06.526Z,22
2019-03-12T09:55:54.082Z,22
2019-03-12T09:56:43.309Z,21.9
2019-03-12T09:57:33.532Z,22
2019-03-12T09:58:23.428Z,21.9
2019-03-12T09:59:13.502Z,22
2019-03-12T10:00:19.049Z,21.9
2019-03-12T10:00:53.315Z,21.9
2019-03-12T10:01:44.287Z,21.9
2019-03-12T10:02:33.805Z,21.9
2019-03-12T10:03:23.879Z,22
2019-03-12T10:04:14.337Z,21.9
2019-03-12T10:06:41.181Z,21.9
2019-03-12T10:07:30.989Z,21.9
2019-03-12T10:08:21.109Z,22
2019-03-12T10:09:10.906Z,21.9
2019-03-12T10:10:01.774Z,21.9
2019-03-12T10:10:50.987Z,21.9
2019-03-12T10:11:41.289Z,21.9
2019-03-12T10:12:31.931Z,21.9
2019-03-12T10:13:21.411Z,21.9
2019-03-12T10:14:10.644Z,21.9
2019-03-12T10:15:01.601Z,21.9
2019-03-12T10:15:51.581Z,21.9
2019-03-12T10:16:41.371Z,21.9
2019-03-12T10:17:32.251Z,21.9
2019-03-12T10:18:21.470Z,21.9
2019-03-12T10:19:12.460Z,21.9
2019-03-12T10:20:01.561Z,21.9
2019-03-12T10:20:52.583Z,21.9
2019-03-12T10:21:41.725Z,21.9
2019-03-12T10:22:31.761Z,22
2019-03-12T10:23:22.383Z,21.9
2019-03-12T10:24:12.430Z,21.9
2019-03-12T10:25:02.353Z,21.9
2019-03-12T10:25:51.728Z,22
2019-03-12T10:26:43.047Z,22
2019-03-12T10:27:31.986Z,22
2019-03-12T10:28:23.083Z,21.9
2019-03-12T10:29:12.807Z,22
2019-03-12T10:30:02.567Z,22
2019-03-12T10:30:52.730Z,22
2019-03-12T10:31:42.443Z,21.9
2019-03-12T10:32:33.330Z,21.9
2019-03-12T10:33:22.850Z,22
2019-03-12T10:34:13.175Z,21.9
2019-03-12T10:35:02.835Z,21.9
2019-03-12T10:35:54.306Z,22
2019-03-12T10:36:43.375Z,22
2019-03-12T10:37:32.866Z,21.9
2019-03-12T10:38:22.614Z,22
2019-03-12T10:39:13.241Z,21.9
2019-03-12T10:40:03.352Z,21.9
2019-03-12T10:40:53.732Z,21.9
2019-03-12T10:41:42.990Z,22
2019-03-12T10:42:33.020Z,21.9
2019-03-12T10:43:23.572Z,22
2019-03-12T10:44:13.352Z,21.9
2019-03-12T10:45:04.362Z,22
2019-03-12T10:45:53.719Z,22
2019-03-12T10:46:43.787Z,22
2019-03-12T10:47:33.837Z,21.9
2019-03-12T10:48:24.511Z,22
2019-03-12T10:49:13.784Z,22
2019-03-12T10:50:04.384Z,22
2019-03-12T10:50:54.651Z,22
2019-03-12T10:51:44.219Z,22
2019-03-12T10:52:33.653Z,21.9
2019-03-12T10:53:24.581Z,21.9
2019-03-12T10:54:13.581Z,22
2019-03-12T10:55:20.256Z,22
2019-03-12T10:55:54.436Z,21.9
2019-03-12T10:56:44.821Z,21.9
2019-03-12T10:57:34.004Z,21.9
2019-03-12T10:58:25.278Z,21.9
2019-03-12T10:59:14.468Z,22
2019-03-12T11:00:04.728Z,21.9
2019-03-12T11:00:55.248Z,21.9
2019-03-12T11:01:45.146Z,21.6
2019-03-12T11:02:34.896Z,21.5
2019-03-12T11:03:25.001Z,21.5
2019-03-12T11:04:15.708Z,21.4
2019-03-12T11:05:05.248Z,21.4
2019-03-12T11:05:54.598Z,21.5
2019-03-12T11:06:44.458Z,21.5
2019-03-12T11:07:35.343Z,21.5
2019-03-12T11:08:24.578Z,21.5
2019-03-12T11:09:15.703Z,21.5
2019-03-12T11:10:05.743Z,21.5
2019-03-12T11:10:54.288Z,21.5
2019-03-12T11:11:45.468Z,21.5
2019-03-12T11:12:35.761Z,21.5
2019-03-12T11:13:25.445Z,21.5
2019-03-12T11:14:15.000Z,21.4
2019-03-12T11:15:06.059Z,21.4
2019-03-12T11:15:56.213Z,21.4
2019-03-12T11:16:45.692Z,21.4
2019-03-12T11:17:50.313Z,21.4
2019-03-12T11:18:25.320Z,21.3
2019-03-12T11:19:16.464Z,21.3
2019-03-12T11:20:06.223Z,21.3
2019-03-12T11:20:59.152Z,21.3
2019-03-12T11:21:46.589Z,21.3
2019-03-12T11:22:35.833Z,21.3
2019-03-12T11:23:26.709Z,21.3
2019-03-12T11:24:16.470Z,21.3
2019-03-12T11:25:07.107Z,21.3